sensor_id;sensor_type;location;lat;lon;timestamp;temperature;humidity
56332;DHT22;42237;53.340;6.812;2022-08-06T00:00:39;11.90;99.90
56332;DHT22;42237;53.340;6.812;2022-08-06T00:03:04;11.90;99.90
56332;DHT22;42237;53.340;6.812;2022-08-06T00:05:30;11.90;99.90
56332;DHT22;42237;53.340;6.812;2022-08-06T00:07:56;11.80;99.90
56332;DHT22;42237;53.340;6.812;2022-08-06T00:10:22;11.80;99.90
56332;DHT22;42237;53.340;6.812;2022-08-06T00:12:48;11.80;99.90
56332;DHT22;42237;53.340;6.812;2022-08-06T00:15:17;11.70;99.90
56332;DHT22;42237;53.340;6.812;2022-08-06T00:17:45;11.70;99.90
56332;DHT22;42237;53.340;6.812;2022-08-06T00:20:15;11.60;99.90
56332;DHT22;42237;53.340;6.812;2022-08-06T00:22:41;11.70;99.90
56332;DHT22;42237;53.340;6.812;2022-08-06T00:25:08;11.70;99.90
56332;DHT22;42237;53.340;6.812;2022-08-06T00:27:36;11.70;99.90
56332;DHT22;42237;53.340;6.812;2022-08-06T00:30:06;11.60;99.90
56332;DHT22;42237;53.340;6.812;2022-08-06T00:32:32;11.60;99.90
56332;DHT22;42237;53.340;6.812;2022-08-06T00:34:57;11.60;99.90
56332;DHT22;42237;53.340;6.812;2022-08-06T00:37:23;11.60;99.90
56332;DHT22;42237;53.340;6.812;2022-08-06T00:39:49;11.60;99.90
56332;DHT22;42237;53.340;6.812;2022-08-06T00:42:15;11.50;99.90
56332;DHT22;42237;53.340;6.812;2022-08-06T00:44:40;11.50;99.90
56332;DHT22;42237;53.340;6.812;2022-08-06T00:47:06;11.50;99.90
56332;DHT22;42237;53.340;6.812;2022-08-06T00:49:32;11.50;99.90
56332;DHT22;42237;53.340;6.812;2022-08-06T00:51:57;11.50;99.90
56332;DHT22;42237;53.340;6.812;2022-08-06T00:54:23;11.50;99.90
56332;DHT22;42237;53.340;6.812;2022-08-06T00:56:49;11.40;99.90
56332;DHT22;42237;53.340;6.812;2022-08-06T00:59:17;11.50;99.90
56332;DHT22;42237;53.340;6.812;2022-08-06T01:01:43;11.50;99.90
56332;DHT22;42237;53.340;6.812;2022-08-06T01:04:09;11.50;99.90
56332;DHT22;42237;53.340;6.812;2022-08-06T01:06:35;11.50;99.90
56332;DHT22;42237;53.340;6.812;2022-08-06T01:09:00;11.50;99.90
56332;DHT22;42237;53.340;6.812;2022-08-06T01:11:26;11.50;99.90
56332;DHT22;42237;53.340;6.812;2022-08-06T01:13:52;11.50;99.90
56332;DHT22;42237;53.340;6.812;2022-08-06T01:29:52;11.40;99.90
56332;DHT22;42237;53.340;6.812;2022-08-06T01:32:29;11.40;99.90
56332;DHT22;42237;53.340;6.812;2022-08-06T01:34:59;11.40;99.90
56332;DHT22;42237;53.340;6.812;2022-08-06T01:37:30;11.40;99.90
56332;DHT22;42237;53.340;6.812;2022-08-06T01:40:03;11.40;99.90
56332;DHT22;42237;53.340;6.812;2022-08-06T01:42:31;11.40;99.90
56332;DHT22;42237;53.340;6.812;2022-08-06T01:45:00;11.40;99.90
56332;DHT22;42237;53.340;6.812;2022-08-06T01:47:29;11.40;99.90
56332;DHT22;42237;53.340;6.812;2022-08-06T01:49:57;11.40;99.90
56332;DHT22;42237;53.340;6.812;2022-08-06T01:52:25;11.40;99.90
56332;DHT22;42237;53.340;6.812;2022-08-06T01:54:53;11.40;99.90
56332;DHT22;42237;53.340;6.812;2022-08-06T01:57:22;11.40;99.90
56332;DHT22;42237;53.340;6.812;2022-08-06T01:59:50;11.40;99.90
56332;DHT22;42237;53.340;6.812;2022-08-06T02:02:21;11.30;99.90
56332;DHT22;42237;53.340;6.812;2022-08-06T02:04:50;11.40;99.90
56332;DHT22;42237;53.340;6.812;2022-08-06T02:07:19;11.30;99.90
56332;DHT22;42237;53.340;6.812;2022-08-06T02:09:48;11.30;99.90
56332;DHT22;42237;53.340;6.812;2022-08-06T02:12:20;11.30;99.90
56332;DHT22;42237;53.340;6.812;2022-08-06T02:14:56;11.30;99.90
56332;DHT22;42237;53.340;6.812;2022-08-06T02:17:30;11.30;99.90
56332;DHT22;42237;53.340;6.812;2022-08-06T02:19:57;11.30;99.90
56332;DHT22;42237;53.340;6.812;2022-08-06T02:22:31;11.30;99.90
56332;DHT22;42237;53.340;6.812;2022-08-06T02:25:04;11.30;99.90
56332;DHT22;42237;53.340;6.812;2022-08-06T02:27:32;11.20;99.90
56332;DHT22;42237;53.340;6.812;2022-08-06T02:30:00;11.20;99.90
56332;DHT22;42237;53.340;6.812;2022-08-06T02:32:26;11.20;99.90
56332;DHT22;42237;53.340;6.812;2022-08-06T02:34:53;11.10;99.90
56332;DHT22;42237;53.340;6.812;2022-08-06T02:37:23;11.10;99.90
56332;DHT22;42237;53.340;6.812;2022-08-06T02:39:53;11.10;99.90
56332;DHT22;42237;53.340;6.812;2022-08-06T02:42:22;11.10;99.90
56332;DHT22;42237;53.340;6.812;2022-08-06T02:45:29;11.00;99.90
56332;DHT22;42237;53.340;6.812;2022-08-06T02:48:13;11.00;99.90
56332;DHT22;42237;53.340;6.812;2022-08-06T02:50:46;11.00;99.90
56332;DHT22;42237;53.340;6.812;2022-08-06T02:53:25;11.00;99.90
56332;DHT22;42237;53.340;6.812;2022-08-06T02:55:59;11.00;99.90
56332;DHT22;42237;53.340;6.812;2022-08-06T02:58:48;11.00;99.90
56332;DHT22;42237;53.340;6.812;2022-08-06T03:01:23;11.10;99.90
56332;DHT22;42237;53.340;6.812;2022-08-06T03:03:52;10.90;99.90
56332;DHT22;42237;53.340;6.812;2022-08-06T03:06:20;10.90;99.90
56332;DHT22;42237;53.340;6.812;2022-08-06T03:08:46;10.90;99.90
56332;DHT22;42237;53.340;6.812;2022-08-06T03:11:13;10.80;99.90
56332;DHT22;42237;53.340;6.812;2022-08-06T03:13:42;10.90;99.90
56332;DHT22;42237;53.340;6.812;2022-08-06T03:16:09;10.80;99.90
56332;DHT22;42237;53.340;6.812;2022-08-06T03:18:40;10.80;99.90
56332;DHT22;42237;53.340;6.812;2022-08-06T03:21:07;10.80;99.90
56332;DHT22;42237;53.340;6.812;2022-08-06T03:23:34;10.80;99.90
56332;DHT22;42237;53.340;6.812;2022-08-06T03:26:01;10.80;99.90
56332;DHT22;42237;53.340;6.812;2022-08-06T03:28:28;10.70;99.90
56332;DHT22;42237;53.340;6.812;2022-08-06T03:30:54;10.70;99.90
56332;DHT22;42237;53.340;6.812;2022-08-06T03:33:20;10.70;99.90
56332;DHT22;42237;53.340;6.812;2022-08-06T03:35:48;10.70;99.90
56332;DHT22;42237;53.340;6.812;2022-08-06T03:38:15;10.70;99.90
56332;DHT22;42237;53.340;6.812;2022-08-06T03:40:43;10.70;99.90
56332;DHT22;42237;53.340;6.812;2022-08-06T03:43:10;10.70;99.90
56332;DHT22;42237;53.340;6.812;2022-08-06T03:45:38;10.70;99.90
56332;DHT22;42237;53.340;6.812;2022-08-06T03:48:06;10.70;99.90
56332;DHT22;42237;53.340;6.812;2022-08-06T03:50:41;10.70;99.90
56332;DHT22;42237;53.340;6.812;2022-08-06T03:53:13;10.70;99.90
56332;DHT22;42237;53.340;6.812;2022-08-06T03:55:43;10.70;99.90
56332;DHT22;42237;53.340;6.812;2022-08-06T03:58:11;10.70;99.90
56332;DHT22;42237;53.340;6.812;2022-08-06T04:00:41;10.80;99.90
56332;DHT22;42237;53.340;6.812;2022-08-06T04:03:07;10.80;99.90
56332;DHT22;42237;53.340;6.812;2022-08-06T04:05:36;10.80;99.90
56332;DHT22;42237;53.340;6.812;2022-08-06T04:08:06;10.90;99.90
56332;DHT22;42237;53.340;6.812;2022-08-06T04:10:41;10.80;99.90
56332;DHT22;42237;53.340;6.812;2022-08-06T04:13:10;10.90;99.90
56332;DHT22;42237;53.340;6.812;2022-08-06T04:15:37;10.90;99.90
56332;DHT22;42237;53.340;6.812;2022-08-06T04:18:15;10.80;99.90
56332;DHT22;42237;53.340;6.812;2022-08-06T04:20:45;10.90;99.90
56332;DHT22;42237;53.340;6.812;2022-08-06T04:23:12;10.90;99.90
56332;DHT22;42237;53.340;6.812;2022-08-06T04:25:40;10.90;99.90
56332;DHT22;42237;53.340;6.812;2022-08-06T04:28:07;10.90;99.90
56332;DHT22;42237;53.340;6.812;2022-08-06T04:30:34;10.90;99.90
56332;DHT22;42237;53.340;6.812;2022-08-06T04:33:05;10.90;99.90
56332;DHT22;42237;53.340;6.812;2022-08-06T04:35:32;10.90;99.90
56332;DHT22;42237;53.340;6.812;2022-08-06T04:38:00;10.90;99.90
56332;DHT22;42237;53.340;6.812;2022-08-06T04:40:26;10.90;99.90
56332;DHT22;42237;53.340;6.812;2022-08-06T04:42:52;11.00;99.90
56332;DHT22;42237;53.340;6.812;2022-08-06T04:45:19;11.00;99.90
56332;DHT22;42237;53.340;6.812;2022-08-06T04:47:47;11.10;99.90
56332;DHT22;42237;53.340;6.812;2022-08-06T04:50:13;11.20;99.90
56332;DHT22;42237;53.340;6.812;2022-08-06T04:52:40;11.30;99.90
56332;DHT22;42237;53.340;6.812;2022-08-06T04:55:06;11.40;99.90
56332;DHT22;42237;53.340;6.812;2022-08-06T04:57:32;11.50;99.90
56332;DHT22;42237;53.340;6.812;2022-08-06T04:59:58;11.60;99.90
56332;DHT22;42237;53.340;6.812;2022-08-06T05:02:24;11.60;99.90
56332;DHT22;42237;53.340;6.812;2022-08-06T05:04:50;11.80;99.90
56332;DHT22;42237;53.340;6.812;2022-08-06T05:07:24;11.80;99.90
56332;DHT22;42237;53.340;6.812;2022-08-06T05:09:51;11.90;99.90
56332;DHT22;42237;53.340;6.812;2022-08-06T05:12:25;12.00;99.90
56332;DHT22;42237;53.340;6.812;2022-08-06T05:17:42;12.10;99.90
56332;DHT22;42237;53.340;6.812;2022-08-06T05:20:16;12.10;99.90
56332;DHT22;42237;53.340;6.812;2022-08-06T05:22:44;12.20;99.90
56332;DHT22;42237;53.340;6.812;2022-08-06T05:25:10;12.30;99.90
56332;DHT22;42237;53.340;6.812;2022-08-06T05:27:36;12.40;99.90
56332;DHT22;42237;53.340;6.812;2022-08-06T05:30:03;12.50;99.90
56332;DHT22;42237;53.340;6.812;2022-08-06T05:32:29;12.60;99.90
56332;DHT22;42237;53.340;6.812;2022-08-06T05:34:55;12.70;99.90
56332;DHT22;42237;53.340;6.812;2022-08-06T05:37:20;12.70;99.90
56332;DHT22;42237;53.340;6.812;2022-08-06T05:39:46;12.90;99.90
56332;DHT22;42237;53.340;6.812;2022-08-06T05:42:12;12.90;99.90
56332;DHT22;42237;53.340;6.812;2022-08-06T05:44:40;13.00;99.90
56332;DHT22;42237;53.340;6.812;2022-08-06T05:47:13;13.00;99.90
56332;DHT22;42237;53.340;6.812;2022-08-06T05:49:49;13.10;99.90
56332;DHT22;42237;53.340;6.812;2022-08-06T05:52:26;13.10;99.90
56332;DHT22;42237;53.340;6.812;2022-08-06T05:55:11;13.20;99.90
56332;DHT22;42237;53.340;6.812;2022-08-06T05:57:48;13.30;99.90
56332;DHT22;42237;53.340;6.812;2022-08-06T06:00:17;13.40;99.90
56332;DHT22;42237;53.340;6.812;2022-08-06T06:02:46;13.40;99.90
56332;DHT22;42237;53.340;6.812;2022-08-06T06:05:13;13.50;99.90
56332;DHT22;42237;53.340;6.812;2022-08-06T06:07:39;13.60;99.90
56332;DHT22;42237;53.340;6.812;2022-08-06T06:10:06;13.80;99.90
56332;DHT22;42237;53.340;6.812;2022-08-06T06:12:33;13.90;99.90
56332;DHT22;42237;53.340;6.812;2022-08-06T06:15:01;14.10;99.90
56332;DHT22;42237;53.340;6.812;2022-08-06T06:17:38;14.30;99.90
56332;DHT22;42237;53.340;6.812;2022-08-06T06:20:25;14.50;99.90
56332;DHT22;42237;53.340;6.812;2022-08-06T06:23:00;14.60;99.90
56332;DHT22;42237;53.340;6.812;2022-08-06T06:25:37;14.60;99.90
56332;DHT22;42237;53.340;6.812;2022-08-06T06:28:23;14.60;99.90
56332;DHT22;42237;53.340;6.812;2022-08-06T06:31:20;14.60;99.90
56332;DHT22;42237;53.340;6.812;2022-08-06T06:36:56;14.60;99.90
56332;DHT22;42237;53.340;6.812;2022-08-06T06:42:22;14.60;99.90
56332;DHT22;42237;53.340;6.812;2022-08-06T06:47:55;14.70;99.90
56332;DHT22;42237;53.340;6.812;2022-08-06T06:50:27;14.80;99.90
56332;DHT22;42237;53.340;6.812;2022-08-06T06:52:55;14.80;99.90
56332;DHT22;42237;53.340;6.812;2022-08-06T06:55:44;14.90;99.90
56332;DHT22;42237;53.340;6.812;2022-08-06T06:58:24;14.90;99.90
56332;DHT22;42237;53.340;6.812;2022-08-06T07:00:52;15.00;99.90
56332;DHT22;42237;53.340;6.812;2022-08-06T07:03:19;15.00;99.90
56332;DHT22;42237;53.340;6.812;2022-08-06T07:05:48;15.10;99.90
56332;DHT22;42237;53.340;6.812;2022-08-06T07:08:19;15.20;99.90
56332;DHT22;42237;53.340;6.812;2022-08-06T07:10:45;15.30;99.90
56332;DHT22;42237;53.340;6.812;2022-08-06T07:13:12;15.40;99.90
56332;DHT22;42237;53.340;6.812;2022-08-06T07:15:41;15.50;99.90
56332;DHT22;42237;53.340;6.812;2022-08-06T07:18:07;15.60;99.90
56332;DHT22;42237;53.340;6.812;2022-08-06T07:20:34;15.90;99.90
56332;DHT22;42237;53.340;6.812;2022-08-06T07:23:04;16.00;99.90
56332;DHT22;42237;53.340;6.812;2022-08-06T07:25:36;16.20;99.90
56332;DHT22;42237;53.340;6.812;2022-08-06T07:28:03;16.40;99.90
56332;DHT22;42237;53.340;6.812;2022-08-06T07:30:30;16.50;99.90
56332;DHT22;42237;53.340;6.812;2022-08-06T07:32:58;16.70;99.90
56332;DHT22;42237;53.340;6.812;2022-08-06T07:35:24;16.70;99.90
56332;DHT22;42237;53.340;6.812;2022-08-06T07:37:56;16.80;99.90
56332;DHT22;42237;53.340;6.812;2022-08-06T07:40:43;16.80;99.90
56332;DHT22;42237;53.340;6.812;2022-08-06T07:43:13;16.90;99.90
56332;DHT22;42237;53.340;6.812;2022-08-06T07:45:39;16.80;99.90
56332;DHT22;42237;53.340;6.812;2022-08-06T07:48:08;16.80;99.90
56332;DHT22;42237;53.340;6.812;2022-08-06T07:50:35;16.80;99.90
56332;DHT22;42237;53.340;6.812;2022-08-06T07:53:02;16.80;99.90
56332;DHT22;42237;53.340;6.812;2022-08-06T07:55:28;16.70;99.90
56332;DHT22;42237;53.340;6.812;2022-08-06T07:57:56;16.70;99.90
56332;DHT22;42237;53.340;6.812;2022-08-06T08:00:23;16.70;99.90
56332;DHT22;42237;53.340;6.812;2022-08-06T08:02:50;16.60;99.90
56332;DHT22;42237;53.340;6.812;2022-08-06T08:05:37;16.60;99.90
56332;DHT22;42237;53.340;6.812;2022-08-06T08:08:24;16.50;99.90
56332;DHT22;42237;53.340;6.812;2022-08-06T08:10:52;16.40;99.90
56332;DHT22;42237;53.340;6.812;2022-08-06T08:13:18;16.40;99.90
56332;DHT22;42237;53.340;6.812;2022-08-06T08:15:46;16.40;99.90
56332;DHT22;42237;53.340;6.812;2022-08-06T08:18:12;16.40;99.90
56332;DHT22;42237;53.340;6.812;2022-08-06T08:20:38;16.30;99.90
56332;DHT22;42237;53.340;6.812;2022-08-06T08:23:05;16.40;99.90
56332;DHT22;42237;53.340;6.812;2022-08-06T08:25:32;16.50;99.90
56332;DHT22;42237;53.340;6.812;2022-08-06T08:27:59;16.50;99.90
56332;DHT22;42237;53.340;6.812;2022-08-06T08:30:25;16.60;99.90
56332;DHT22;42237;53.340;6.812;2022-08-06T08:32:50;16.70;99.90
56332;DHT22;42237;53.340;6.812;2022-08-06T08:35:16;16.90;99.90
56332;DHT22;42237;53.340;6.812;2022-08-06T08:37:42;17.10;99.90
56332;DHT22;42237;53.340;6.812;2022-08-06T08:40:12;17.10;99.90
56332;DHT22;42237;53.340;6.812;2022-08-06T08:42:45;17.20;99.90
56332;DHT22;42237;53.340;6.812;2022-08-06T08:45:11;17.20;99.90
56332;DHT22;42237;53.340;6.812;2022-08-06T08:47:43;17.10;99.90
56332;DHT22;42237;53.340;6.812;2022-08-06T08:50:10;17.20;99.90
56332;DHT22;42237;53.340;6.812;2022-08-06T08:52:39;17.40;99.90
56332;DHT22;42237;53.340;6.812;2022-08-06T08:55:07;17.60;99.90
56332;DHT22;42237;53.340;6.812;2022-08-06T08:57:35;17.80;99.90
56332;DHT22;42237;53.340;6.812;2022-08-06T09:00:04;17.90;99.90
56332;DHT22;42237;53.340;6.812;2022-08-06T09:02:30;18.00;99.90
56332;DHT22;42237;53.340;6.812;2022-08-06T09:04:57;18.00;99.90
56332;DHT22;42237;53.340;6.812;2022-08-06T09:07:23;17.90;99.90
56332;DHT22;42237;53.340;6.812;2022-08-06T09:09:49;17.80;99.90
56332;DHT22;42237;53.340;6.812;2022-08-06T09:12:15;17.60;99.90
56332;DHT22;42237;53.340;6.812;2022-08-06T09:14:41;17.40;99.90
56332;DHT22;42237;53.340;6.812;2022-08-06T09:17:09;17.30;99.90
56332;DHT22;42237;53.340;6.812;2022-08-06T09:19:35;17.30;99.90
56332;DHT22;42237;53.340;6.812;2022-08-06T09:22:01;17.20;99.90
56332;DHT22;42237;53.340;6.812;2022-08-06T09:24:27;17.30;99.90
56332;DHT22;42237;53.340;6.812;2022-08-06T09:29:31;17.40;99.90
56332;DHT22;42237;53.340;6.812;2022-08-06T09:31:57;17.60;99.90
56332;DHT22;42237;53.340;6.812;2022-08-06T09:34:37;17.60;99.90
56332;DHT22;42237;53.340;6.812;2022-08-06T09:37:03;17.70;99.90
56332;DHT22;42237;53.340;6.812;2022-08-06T09:41:56;17.80;99.90
56332;DHT22;42237;53.340;6.812;2022-08-06T09:44:23;17.90;99.90
56332;DHT22;42237;53.340;6.812;2022-08-06T09:46:48;18.00;99.90
56332;DHT22;42237;53.340;6.812;2022-08-06T09:49:18;18.10;99.90
56332;DHT22;42237;53.340;6.812;2022-08-06T09:51:44;18.20;99.90
56332;DHT22;42237;53.340;6.812;2022-08-06T09:54:11;18.20;99.90
56332;DHT22;42237;53.340;6.812;2022-08-06T09:56:42;18.20;99.90
56332;DHT22;42237;53.340;6.812;2022-08-06T09:59:08;18.20;99.90
56332;DHT22;42237;53.340;6.812;2022-08-06T10:01:53;18.30;99.90
56332;DHT22;42237;53.340;6.812;2022-08-06T10:04:25;18.30;99.90
56332;DHT22;42237;53.340;6.812;2022-08-06T10:06:59;18.30;99.90
56332;DHT22;42237;53.340;6.812;2022-08-06T10:09:26;18.20;99.90
56332;DHT22;42237;53.340;6.812;2022-08-06T10:11:52;18.10;99.90
56332;DHT22;42237;53.340;6.812;2022-08-06T10:14:29;18.10;99.90
56332;DHT22;42237;53.340;6.812;2022-08-06T10:19:30;18.20;99.90
56332;DHT22;42237;53.340;6.812;2022-08-06T10:22:06;18.30;99.90
56332;DHT22;42237;53.340;6.812;2022-08-06T10:24:33;18.30;99.90
56332;DHT22;42237;53.340;6.812;2022-08-06T10:27:02;18.30;99.90
56332;DHT22;42237;53.340;6.812;2022-08-06T10:29:29;18.40;99.90
56332;DHT22;42237;53.340;6.812;2022-08-06T10:31:56;18.50;99.90
56332;DHT22;42237;53.340;6.812;2022-08-06T10:34:27;18.70;99.90
56332;DHT22;42237;53.340;6.812;2022-08-06T10:37:01;18.80;99.90
56332;DHT22;42237;53.340;6.812;2022-08-06T10:39:32;18.70;99.60
56332;DHT22;42237;53.340;6.812;2022-08-06T10:42:00;18.70;99.90
56332;DHT22;42237;53.340;6.812;2022-08-06T10:44:27;18.70;99.90
56332;DHT22;42237;53.340;6.812;2022-08-06T10:46:54;18.70;99.90
56332;DHT22;42237;53.340;6.812;2022-08-06T10:49:20;18.70;99.90
56332;DHT22;42237;53.340;6.812;2022-08-06T10:51:47;18.80;99.90
56332;DHT22;42237;53.340;6.812;2022-08-06T10:54:14;18.80;99.10
56332;DHT22;42237;53.340;6.812;2022-08-06T10:56:41;18.80;98.60
56332;DHT22;42237;53.340;6.812;2022-08-06T10:59:06;18.80;99.20
56332;DHT22;42237;53.340;6.812;2022-08-06T11:04:50;18.90;98.60
56332;DHT22;42237;53.340;6.812;2022-08-06T11:15:49;18.90;97.50
56332;DHT22;42237;53.340;6.812;2022-08-06T11:18:16;18.90;98.70
56332;DHT22;42237;53.340;6.812;2022-08-06T11:20:47;19.00;98.10
56332;DHT22;42237;53.340;6.812;2022-08-06T11:25:52;19.00;98.00
56332;DHT22;42237;53.340;6.812;2022-08-06T11:31:05;19.10;96.90
56332;DHT22;42237;53.340;6.812;2022-08-06T11:38:58;19.40;96.10
56332;DHT22;42237;53.340;6.812;2022-08-06T11:41:29;19.50;95.30
56332;DHT22;42237;53.340;6.812;2022-08-06T11:51:57;19.80;93.50
56332;DHT22;42237;53.340;6.812;2022-08-06T12:05:31;19.80;91.50
56332;DHT22;42237;53.340;6.812;2022-08-06T12:08:16;19.90;91.00
56332;DHT22;42237;53.340;6.812;2022-08-06T12:11:23;19.90;90.90
56332;DHT22;42237;53.340;6.812;2022-08-06T12:13:58;19.90;86.90
56332;DHT22;42237;53.340;6.812;2022-08-06T12:16:26;19.90;90.90
56332;DHT22;42237;53.340;6.812;2022-08-06T12:18:51;20.00;90.90
56332;DHT22;42237;53.340;6.812;2022-08-06T12:21:17;19.90;90.40
56332;DHT22;42237;53.340;6.812;2022-08-06T12:23:44;19.90;90.20
56332;DHT22;42237;53.340;6.812;2022-08-06T12:26:14;19.80;90.30
56332;DHT22;42237;53.340;6.812;2022-08-06T12:28:41;19.90;89.50
56332;DHT22;42237;53.340;6.812;2022-08-06T12:31:07;19.90;87.90
56332;DHT22;42237;53.340;6.812;2022-08-06T12:33:40;19.80;86.30
56332;DHT22;42237;53.340;6.812;2022-08-06T12:36:06;19.90;87.00
56332;DHT22;42237;53.340;6.812;2022-08-06T12:38:32;19.90;88.40
56332;DHT22;42237;53.340;6.812;2022-08-06T12:41:04;20.00;88.60
56332;DHT22;42237;53.340;6.812;2022-08-06T12:43:32;20.00;88.30
56332;DHT22;42237;53.340;6.812;2022-08-06T12:46:00;19.90;87.40
56332;DHT22;42237;53.340;6.812;2022-08-06T12:48:27;19.90;87.50
56332;DHT22;42237;53.340;6.812;2022-08-06T12:51:06;19.90;88.50
56332;DHT22;42237;53.340;6.812;2022-08-06T12:53:33;20.00;86.90
56332;DHT22;42237;53.340;6.812;2022-08-06T12:56:02;19.90;87.10
56332;DHT22;42237;53.340;6.812;2022-08-06T12:58:37;19.80;86.50
56332;DHT22;42237;53.340;6.812;2022-08-06T13:01:06;19.80;88.20
56332;DHT22;42237;53.340;6.812;2022-08-06T13:03:33;19.70;88.10
56332;DHT22;42237;53.340;6.812;2022-08-06T13:06:02;19.70;88.70
56332;DHT22;42237;53.340;6.812;2022-08-06T13:08:29;19.60;87.30
56332;DHT22;42237;53.340;6.812;2022-08-06T13:10:56;19.60;86.40
56332;DHT22;42237;53.340;6.812;2022-08-06T13:13:38;19.60;87.60
56332;DHT22;42237;53.340;6.812;2022-08-06T13:18:30;19.70;88.70
56332;DHT22;42237;53.340;6.812;2022-08-06T13:20:56;19.70;88.00
56332;DHT22;42237;53.340;6.812;2022-08-06T13:25:57;19.60;87.90
56332;DHT22;42237;53.340;6.812;2022-08-06T13:28:24;19.60;89.00
56332;DHT22;42237;53.340;6.812;2022-08-06T13:30:50;19.60;88.40
56332;DHT22;42237;53.340;6.812;2022-08-06T13:33:21;19.60;87.80
56332;DHT22;42237;53.340;6.812;2022-08-06T13:36:03;19.60;87.40
56332;DHT22;42237;53.340;6.812;2022-08-06T13:38:34;19.60;88.20
56332;DHT22;42237;53.340;6.812;2022-08-06T13:41:01;19.60;90.10
56332;DHT22;42237;53.340;6.812;2022-08-06T13:43:53;19.70;89.90
56332;DHT22;42237;53.340;6.812;2022-08-06T13:46:21;19.70;88.20
56332;DHT22;42237;53.340;6.812;2022-08-06T13:48:49;19.70;88.50
56332;DHT22;42237;53.340;6.812;2022-08-06T13:51:16;19.70;89.00
56332;DHT22;42237;53.340;6.812;2022-08-06T13:53:42;19.80;89.00
56332;DHT22;42237;53.340;6.812;2022-08-06T13:56:08;19.80;89.00
56332;DHT22;42237;53.340;6.812;2022-08-06T13:58:34;19.80;87.90
56332;DHT22;42237;53.340;6.812;2022-08-06T14:01:00;19.80;87.70
56332;DHT22;42237;53.340;6.812;2022-08-06T14:03:27;19.80;88.10
56332;DHT22;42237;53.340;6.812;2022-08-06T14:05:54;19.90;88.30
56332;DHT22;42237;53.340;6.812;2022-08-06T14:08:20;20.00;87.50
56332;DHT22;42237;53.340;6.812;2022-08-06T14:10:46;20.10;85.70
56332;DHT22;42237;53.340;6.812;2022-08-06T14:13:12;20.10;84.50
56332;DHT22;42237;53.340;6.812;2022-08-06T14:15:51;20.10;84.40
56332;DHT22;42237;53.340;6.812;2022-08-06T14:18:19;20.20;86.30
56332;DHT22;42237;53.340;6.812;2022-08-06T14:20:45;20.30;86.30
56332;DHT22;42237;53.340;6.812;2022-08-06T14:23:12;20.40;87.20
56332;DHT22;42237;53.340;6.812;2022-08-06T14:25:38;20.40;87.30
56332;DHT22;42237;53.340;6.812;2022-08-06T14:28:04;20.40;86.80
56332;DHT22;42237;53.340;6.812;2022-08-06T14:30:31;20.40;84.80
56332;DHT22;42237;53.340;6.812;2022-08-06T14:32:57;20.40;83.50
56332;DHT22;42237;53.340;6.812;2022-08-06T14:35:25;20.50;82.00
56332;DHT22;42237;53.340;6.812;2022-08-06T14:37:50;20.50;81.10
56332;DHT22;42237;53.340;6.812;2022-08-06T14:40:19;20.60;82.30
56332;DHT22;42237;53.340;6.812;2022-08-06T14:43:04;20.70;82.90
56332;DHT22;42237;53.340;6.812;2022-08-06T14:45:48;20.90;82.20
56332;DHT22;42237;53.340;6.812;2022-08-06T14:48:14;20.90;81.40
56332;DHT22;42237;53.340;6.812;2022-08-06T14:50:40;21.00;81.60
56332;DHT22;42237;53.340;6.812;2022-08-06T14:53:05;21.20;81.20
56332;DHT22;42237;53.340;6.812;2022-08-06T14:55:31;21.40;81.00
56332;DHT22;42237;53.340;6.812;2022-08-06T14:57:57;21.50;81.40
56332;DHT22;42237;53.340;6.812;2022-08-06T15:00:22;21.70;81.10
56332;DHT22;42237;53.340;6.812;2022-08-06T15:02:48;21.80;80.50
56332;DHT22;42237;53.340;6.812;2022-08-06T15:05:17;21.90;81.10
56332;DHT22;42237;53.340;6.812;2022-08-06T15:07:42;22.00;81.70
56332;DHT22;42237;53.340;6.812;2022-08-06T15:10:12;22.20;81.40
56332;DHT22;42237;53.340;6.812;2022-08-06T15:12:37;22.30;80.40
56332;DHT22;42237;53.340;6.812;2022-08-06T15:15:04;22.30;79.80
56332;DHT22;42237;53.340;6.812;2022-08-06T15:17:31;22.30;78.50
56332;DHT22;42237;53.340;6.812;2022-08-06T15:19:56;22.20;77.90
56332;DHT22;42237;53.340;6.812;2022-08-06T15:22:22;22.10;78.20
56332;DHT22;42237;53.340;6.812;2022-08-06T15:24:48;22.30;78.90
56332;DHT22;42237;53.340;6.812;2022-08-06T15:27:13;22.40;77.80
56332;DHT22;42237;53.340;6.812;2022-08-06T15:29:45;22.40;75.80
56332;DHT22;42237;53.340;6.812;2022-08-06T15:32:11;22.60;75.30
56332;DHT22;42237;53.340;6.812;2022-08-06T15:34:37;22.60;73.80
56332;DHT22;42237;53.340;6.812;2022-08-06T15:37:02;22.60;74.60
56332;DHT22;42237;53.340;6.812;2022-08-06T15:39:29;22.50;75.40
56332;DHT22;42237;53.340;6.812;2022-08-06T15:41:55;22.50;75.30
56332;DHT22;42237;53.340;6.812;2022-08-06T15:44:21;22.60;73.40
56332;DHT22;42237;53.340;6.812;2022-08-06T15:46:46;22.50;73.20
56332;DHT22;42237;53.340;6.812;2022-08-06T15:49:12;22.30;74.60
56332;DHT22;42237;53.340;6.812;2022-08-06T15:51:38;22.00;74.90
56332;DHT22;42237;53.340;6.812;2022-08-06T15:54:03;21.90;75.50
56332;DHT22;42237;53.340;6.812;2022-08-06T15:56:29;21.80;75.50
56332;DHT22;42237;53.340;6.812;2022-08-06T15:58:58;21.70;75.50
56332;DHT22;42237;53.340;6.812;2022-08-06T16:01:24;21.50;76.00
56332;DHT22;42237;53.340;6.812;2022-08-06T16:03:50;21.20;75.90
56332;DHT22;42237;53.340;6.812;2022-08-06T16:06:15;21.20;77.40
56332;DHT22;42237;53.340;6.812;2022-08-06T16:08:41;21.00;78.70
56332;DHT22;42237;53.340;6.812;2022-08-06T16:11:08;20.90;78.30
56332;DHT22;42237;53.340;6.812;2022-08-06T16:13:34;20.70;78.80
56332;DHT22;42237;53.340;6.812;2022-08-06T16:16:00;20.60;79.20
56332;DHT22;42237;53.340;6.812;2022-08-06T16:18:26;20.50;78.50
56332;DHT22;42237;53.340;6.812;2022-08-06T16:20:55;20.50;78.50
56332;DHT22;42237;53.340;6.812;2022-08-06T16:23:21;20.40;79.00
56332;DHT22;42237;53.340;6.812;2022-08-06T16:25:48;20.30;78.80
56332;DHT22;42237;53.340;6.812;2022-08-06T16:28:14;20.30;79.60
56332;DHT22;42237;53.340;6.812;2022-08-06T16:30:40;20.20;79.40
56332;DHT22;42237;53.340;6.812;2022-08-06T16:33:06;20.20;79.30
56332;DHT22;42237;53.340;6.812;2022-08-06T16:35:31;20.10;79.90
56332;DHT22;42237;53.340;6.812;2022-08-06T16:37:59;20.00;79.90
56332;DHT22;42237;53.340;6.812;2022-08-06T16:40:25;20.00;80.00
56332;DHT22;42237;53.340;6.812;2022-08-06T16:42:55;20.00;80.10
56332;DHT22;42237;53.340;6.812;2022-08-06T16:45:21;20.00;80.50
56332;DHT22;42237;53.340;6.812;2022-08-06T16:47:52;19.90;80.20
56332;DHT22;42237;53.340;6.812;2022-08-06T16:50:19;19.90;79.80
56332;DHT22;42237;53.340;6.812;2022-08-06T16:52:45;19.90;79.90
56332;DHT22;42237;53.340;6.812;2022-08-06T16:55:11;19.90;80.60
56332;DHT22;42237;53.340;6.812;2022-08-06T16:57:37;19.90;81.40
56332;DHT22;42237;53.340;6.812;2022-08-06T17:00:08;20.00;81.00